sensor_id;sensor_type;location;lat;lon;timestamp;P1;durP1;ratioP1;P2;durP2;ratioP2
30462;SDS011;17256;43.618;25.336;2023-05-07T00:00:46;6.27;;;3.60;;
30462;SDS011;17256;43.618;25.336;2023-05-07T00:06:26;5.13;;;3.93;;
30462;SDS011;17256;43.618;25.336;2023-05-07T00:08:54;4.30;;;3.73;;
30462;SDS011;17256;43.618;25.336;2023-05-07T00:11:23;4.40;;;3.20;;
30462;SDS011;17256;43.618;25.336;2023-05-07T00:13:51;3.37;;;3.07;;
30462;SDS011;17256;43.618;25.336;2023-05-07T00:17:01;3.73;;;3.40;;
30462;SDS011;17256;43.618;25.336;2023-05-07T00:26:18;3.83;;;3.37;;
30462;SDS011;17256;43.618;25.336;2023-05-07T00:28:54;4.40;;;3.37;;
30462;SDS011;17256;43.618;25.336;2023-05-07T00:31:23;5.90;;;4.03;;
30462;SDS011;17256;43.618;25.336;2023-05-07T00:33:53;5.37;;;3.50;;
30462;SDS011;17256;43.618;25.336;2023-05-07T00:52:37;6.67;;;3.23;;
30462;SDS011;17256;43.618;25.336;2023-05-07T00:55:04;4.43;;;3.27;;
30462;SDS011;17256;43.618;25.336;2023-05-07T00:57:37;3.63;;;3.30;;
30462;SDS011;17256;43.618;25.336;2023-05-07T01:00:05;6.43;;;3.87;;
30462;SDS011;17256;43.618;25.336;2023-05-07T01:02:34;3.53;;;3.23;;
30462;SDS011;17256;43.618;25.336;2023-05-07T01:14:16;8.43;;;3.97;;
30462;SDS011;17256;43.618;25.336;2023-05-07T01:17:45;5.20;;;3.53;;
30462;SDS011;17256;43.618;25.336;2023-05-07T01:20:18;5.47;;;3.67;;
30462;SDS011;17256;43.618;25.336;2023-05-07T01:22:46;4.40;;;3.77;;
30462;SDS011;17256;43.618;25.336;2023-05-07T01:25:13;3.87;;;3.10;;
30462;SDS011;17256;43.618;25.336;2023-05-07T01:27:45;4.43;;;3.30;;
30462;SDS011;17256;43.618;25.336;2023-05-07T01:30:12;4.43;;;3.17;;
30462;SDS011;17256;43.618;25.336;2023-05-07T01:35:15;6.77;;;3.70;;
30462;SDS011;17256;43.618;25.336;2023-05-07T01:37:47;4.47;;;3.53;;
30462;SDS011;17256;43.618;25.336;2023-05-07T01:40:16;6.53;;;3.67;;
30462;SDS011;17256;43.618;25.336;2023-05-07T01:42:43;4.43;;;3.13;;
30462;SDS011;17256;43.618;25.336;2023-05-07T01:45:09;8.40;;;4.17;;
30462;SDS011;17256;43.618;25.336;2023-05-07T01:47:36;4.10;;;3.43;;
30462;SDS011;17256;43.618;25.336;2023-05-07T01:50:03;5.07;;;3.63;;
30462;SDS011;17256;43.618;25.336;2023-05-07T01:52:31;4.77;;;3.50;;
30462;SDS011;17256;43.618;25.336;2023-05-07T01:54:57;4.67;;;4.27;;
30462;SDS011;17256;43.618;25.336;2023-05-07T01:57:23;5.33;;;4.23;;
30462;SDS011;17256;43.618;25.336;2023-05-07T02:05:21;4.90;;;4.40;;
30462;SDS011;17256;43.618;25.336;2023-05-07T02:07:54;4.73;;;4.17;;
30462;SDS011;17256;43.618;25.336;2023-05-07T02:10:20;5.60;;;4.37;;
30462;SDS011;17256;43.618;25.336;2023-05-07T02:12:46;5.43;;;4.40;;
30462;SDS011;17256;43.618;25.336;2023-05-07T02:15:12;5.37;;;4.57;;
30462;SDS011;17256;43.618;25.336;2023-05-07T02:25:16;5.27;;;4.40;;
30462;SDS011;17256;43.618;25.336;2023-05-07T02:39:59;6.40;;;5.80;;
30462;SDS011;17256;43.618;25.336;2023-05-07T02:42:44;6.07;;;5.03;;
30462;SDS011;17256;43.618;25.336;2023-05-07T02:45:30;5.83;;;5.17;;
30462;SDS011;17256;43.618;25.336;2023-05-07T02:55:33;7.53;;;6.83;;
30462;SDS011;17256;43.618;25.336;2023-05-07T02:59:09;6.73;;;5.37;;
30462;SDS011;17256;43.618;25.336;2023-05-07T03:02:03;6.27;;;5.17;;
30462;SDS011;17256;43.618;25.336;2023-05-07T03:05:42;8.47;;;5.33;;
30462;SDS011;17256;43.618;25.336;2023-05-07T03:13:45;6.00;;;5.40;;
30462;SDS011;17256;43.618;25.336;2023-05-07T03:16:11;6.73;;;5.30;;
30462;SDS011;17256;43.618;25.336;2023-05-07T03:18:37;5.80;;;5.30;;
30462;SDS011;17256;43.618;25.336;2023-05-07T03:21:03;8.17;;;5.97;;
30462;SDS011;17256;43.618;25.336;2023-05-07T03:23:29;7.03;;;5.83;;
30462;SDS011;17256;43.618;25.336;2023-05-07T03:25:59;6.60;;;5.87;;
30462;SDS011;17256;43.618;25.336;2023-05-07T03:28:27;6.80;;;6.17;;
30462;SDS011;17256;43.618;25.336;2023-05-07T03:30:59;8.13;;;7.20;;
30462;SDS011;17256;43.618;25.336;2023-05-07T03:40:09;7.57;;;6.90;;
30462;SDS011;17256;43.618;25.336;2023-05-07T03:43:09;7.20;;;5.10;;
30462;SDS011;17256;43.618;25.336;2023-05-07T03:47:01;6.70;;;5.27;;
30462;SDS011;17256;43.618;25.336;2023-05-07T04:07:34;5.70;;;5.10;;
30462;SDS011;17256;43.618;25.336;2023-05-07T04:10:03;9.33;;;6.50;;
30462;SDS011;17256;43.618;25.336;2023-05-07T04:12:46;6.93;;;4.97;;
30462;SDS011;17256;43.618;25.336;2023-05-07T04:15:18;9.60;;;4.60;;
30462;SDS011;17256;43.618;25.336;2023-05-07T04:20:36;6.50;;;5.30;;
30462;SDS011;17256;43.618;25.336;2023-05-07T04:23:04;5.97;;;4.50;;
30462;SDS011;17256;43.618;25.336;2023-05-07T04:25:31;6.63;;;5.13;;
30462;SDS011;17256;43.618;25.336;2023-05-07T04:28:05;4.97;;;4.43;;
30462;SDS011;17256;43.618;25.336;2023-05-07T04:39:19;7.00;;;5.77;;
30462;SDS011;17256;43.618;25.336;2023-05-07T04:50:21;9.57;;;4.67;;
30462;SDS011;17256;43.618;25.336;2023-05-07T05:19:21;4.57;;;3.90;;
30462;SDS011;17256;43.618;25.336;2023-05-07T05:22:29;6.10;;;5.50;;
30462;SDS011;17256;43.618;25.336;2023-05-07T05:25:24;12.53;;;6.47;;
30462;SDS011;17256;43.618;25.336;2023-05-07T05:27:53;6.47;;;5.03;;
30462;SDS011;17256;43.618;25.336;2023-05-07T05:31:02;5.00;;;4.50;;
30462;SDS011;17256;43.618;25.336;2023-05-07T05:34:26;6.07;;;4.93;;
30462;SDS011;17256;43.618;25.336;2023-05-07T05:36:58;4.70;;;4.20;;
30462;SDS011;17256;43.618;25.336;2023-05-07T05:40:04;5.50;;;4.33;;
30462;SDS011;17256;43.618;25.336;2023-05-07T05:43:37;6.50;;;3.93;;
30462;SDS011;17256;43.618;25.336;2023-05-07T05:46:15;6.30;;;4.10;;
30462;SDS011;17256;43.618;25.336;2023-05-07T05:49:22;10.60;;;5.07;;
30462;SDS011;17256;43.618;25.336;2023-05-07T06:00:32;4.83;;;4.33;;
30462;SDS011;17256;43.618;25.336;2023-05-07T06:11:05;6.43;;;3.10;;
30462;SDS011;17256;43.618;25.336;2023-05-07T06:17:01;4.07;;;3.53;;
30462;SDS011;17256;43.618;25.336;2023-05-07T06:54:06;3.93;;;2.77;;
30462;SDS011;17256;43.618;25.336;2023-05-07T06:56:35;4.50;;;2.30;;
30462;SDS011;17256;43.618;25.336;2023-05-07T06:59:02;3.67;;;2.53;;
30462;SDS011;17256;43.618;25.336;2023-05-07T07:01:34;4.20;;;2.40;;
30462;SDS011;17256;43.618;25.336;2023-05-07T07:27:31;3.60;;;2.30;;
30462;SDS011;17256;43.618;25.336;2023-05-07T07:35:36;2.57;;;2.13;;
30462;SDS011;17256;43.618;25.336;2023-05-07T07:38:10;2.63;;;1.90;;
30462;SDS011;17256;43.618;25.336;2023-05-07T07:40:38;8.33;;;2.90;;
30462;SDS011;17256;43.618;25.336;2023-05-07T07:43:21;4.30;;;3.20;;
30462;SDS011;17256;43.618;25.336;2023-05-07T07:46:13;4.60;;;2.53;;
30462;SDS011;17256;43.618;25.336;2023-05-07T07:49:18;6.57;;;2.83;;
30462;SDS011;17256;43.618;25.336;2023-05-07T07:52:06;2.87;;;2.07;;
30462;SDS011;17256;43.618;25.336;2023-05-07T08:00:33;6.50;;;2.83;;
30462;SDS011;17256;43.618;25.336;2023-05-07T08:03:33;3.83;;;2.40;;
30462;SDS011;17256;43.618;25.336;2023-05-07T08:14:51;3.33;;;2.20;;
30462;SDS011;17256;43.618;25.336;2023-05-07T08:17:19;2.63;;;2.00;;
30462;SDS011;17256;43.618;25.336;2023-05-07T08:19:48;3.93;;;2.40;;
30462;SDS011;17256;43.618;25.336;2023-05-07T08:22:14;2.70;;;2.23;;
30462;SDS011;17256;43.618;25.336;2023-05-07T08:24:43;4.17;;;3.17;;
30462;SDS011;17256;43.618;25.336;2023-05-07T08:27:23;3.23;;;1.90;;
30462;SDS011;17256;43.618;25.336;2023-05-07T08:29:53;3.37;;;2.33;;
30462;SDS011;17256;43.618;25.336;2023-05-07T08:32:20;4.83;;;3.23;;
30462;SDS011;17256;43.618;25.336;2023-05-07T08:34:47;5.07;;;2.43;;
30462;SDS011;17256;43.618;25.336;2023-05-07T08:37:21;2.97;;;2.10;;
30462;SDS011;17256;43.618;25.336;2023-05-07T08:42:52;6.30;;;2.70;;
30462;SDS011;17256;43.618;25.336;2023-05-07T08:45:22;4.20;;;2.23;;
30462;SDS011;17256;43.618;25.336;2023-05-07T08:47:51;2.37;;;2.20;;
30462;SDS011;17256;43.618;25.336;2023-05-07T08:50:23;4.27;;;2.13;;
30462;SDS011;17256;43.618;25.336;2023-05-07T08:52:53;2.83;;;2.30;;
30462;SDS011;17256;43.618;25.336;2023-05-07T08:55:20;3.47;;;2.03;;
30462;SDS011;17256;43.618;25.336;2023-05-07T09:00:29;2.60;;;1.90;;
30462;SDS011;17256;43.618;25.336;2023-05-07T09:02:56;7.23;;;2.23;;
30462;SDS011;17256;43.618;25.336;2023-05-07T09:15:17;2.67;;;1.70;;
30462;SDS011;17256;43.618;25.336;2023-05-07T09:17:48;6.60;;;2.17;;
30462;SDS011;17256;43.618;25.336;2023-05-07T09:20:14;2.63;;;2.03;;
30462;SDS011;17256;43.618;25.336;2023-05-07T09:22:44;3.73;;;2.13;;
30462;SDS011;17256;43.618;25.336;2023-05-07T09:28:14;3.10;;;2.13;;
30462;SDS011;17256;43.618;25.336;2023-05-07T09:30:40;2.43;;;2.23;;
30462;SDS011;17256;43.618;25.336;2023-05-07T09:33:09;2.67;;;2.33;;
30462;SDS011;17256;43.618;25.336;2023-05-07T09:35:39;3.97;;;2.03;;
30462;SDS011;17256;43.618;25.336;2023-05-07T09:38:12;4.43;;;2.17;;
30462;SDS011;17256;43.618;25.336;2023-05-07T09:40:40;2.27;;;1.77;;
30462;SDS011;17256;43.618;25.336;2023-05-07T09:43:13;4.33;;;2.20;;
30462;SDS011;17256;43.618;25.336;2023-05-07T09:54:16;4.60;;;1.90;;
30462;SDS011;17256;43.618;25.336;2023-05-07T09:56:45;4.60;;;2.17;;
30462;SDS011;17256;43.618;25.336;2023-05-07T09:59:16;6.57;;;1.90;;
30462;SDS011;17256;43.618;25.336;2023-05-07T10:01:43;1.60;;;1.50;;
30462;SDS011;17256;43.618;25.336;2023-05-07T10:04:11;2.13;;;1.57;;
30462;SDS011;17256;43.618;25.336;2023-05-07T10:06:40;4.20;;;1.80;;
30462;SDS011;17256;43.618;25.336;2023-05-07T10:09:09;3.00;;;1.63;;
30462;SDS011;17256;43.618;25.336;2023-05-07T10:11:40;3.87;;;1.80;;
30462;SDS011;17256;43.618;25.336;2023-05-07T10:14:09;2.90;;;1.60;;
30462;SDS011;17256;43.618;25.336;2023-05-07T10:16:43;2.30;;;2.07;;
30462;SDS011;17256;43.618;25.336;2023-05-07T10:19:26;2.57;;;1.90;;
30462;SDS011;17256;43.618;25.336;2023-05-07T10:21:59;2.97;;;1.90;;
30462;SDS011;17256;43.618;25.336;2023-05-07T10:24:33;4.00;;;1.67;;
30462;SDS011;17256;43.618;25.336;2023-05-07T10:41:01;2.17;;;1.80;;
30462;SDS011;17256;43.618;25.336;2023-05-07T10:43:39;1.50;;;1.40;;
30462;SDS011;17256;43.618;25.336;2023-05-07T10:46:26;2.70;;;1.80;;
30462;SDS011;17256;43.618;25.336;2023-05-07T11:04:45;4.23;;;2.40;;
30462;SDS011;17256;43.618;25.336;2023-05-07T11:08:02;3.23;;;1.80;;
30462;SDS011;17256;43.618;25.336;2023-05-07T11:17:14;5.50;;;1.83;;
30462;SDS011;17256;43.618;25.336;2023-05-07T11:19:50;4.57;;;2.20;;
30462;SDS011;17256;43.618;25.336;2023-05-07T11:29:51;4.63;;;1.87;;
30462;SDS011;17256;43.618;25.336;2023-05-07T11:37:59;1.90;;;1.67;;
30462;SDS011;17256;43.618;25.336;2023-05-07T11:41:44;2.03;;;1.47;;
30462;SDS011;17256;43.618;25.336;2023-05-07T11:49:41;1.73;;;1.47;;
30462;SDS011;17256;43.618;25.336;2023-05-07T11:52:35;3.40;;;1.50;;
30462;SDS011;17256;43.618;25.336;2023-05-07T11:56:19;3.13;;;2.50;;
30462;SDS011;17256;43.618;25.336;2023-05-07T11:59:41;2.50;;;1.50;;
30462;SDS011;17256;43.618;25.336;2023-05-07T12:03:26;1.43;;;1.33;;
30462;SDS011;17256;43.618;25.336;2023-05-07T12:21:06;3.10;;;1.73;;
30462;SDS011;17256;43.618;25.336;2023-05-07T12:33:06;2.23;;;1.70;;
30462;SDS011;17256;43.618;25.336;2023-05-07T12:44:09;5.63;;;2.10;;
30462;SDS011;17256;43.618;25.336;2023-05-07T12:46:54;4.67;;;1.50;;
30462;SDS011;17256;43.618;25.336;2023-05-07T12:49:35;4.40;;;1.63;;
30462;SDS011;17256;43.618;25.336;2023-05-07T12:52:11;5.70;;;1.90;;
30462;SDS011;17256;43.618;25.336;2023-05-07T12:54:43;3.60;;;1.63;;
30462;SDS011;17256;43.618;25.336;2023-05-07T12:57:26;4.30;;;2.50;;
30462;SDS011;17256;43.618;25.336;2023-05-07T13:03:27;3.30;;;1.80;;
30462;SDS011;17256;43.618;25.336;2023-05-07T14:08:00;7.40;;;2.70;;
30462;SDS011;17256;43.618;25.336;2023-05-07T14:22:13;4.40;;;2.00;;
30462;SDS011;17256;43.618;25.336;2023-05-07T14:24:39;5.37;;;1.93;;
30462;SDS011;17256;43.618;25.336;2023-05-07T14:27:06;1.70;;;1.60;;
30462;SDS011;17256;43.618;25.336;2023-05-07T14:29:33;2.13;;;2.03;;
30462;SDS011;17256;43.618;25.336;2023-05-07T14:32:00;2.03;;;1.83;;
30462;SDS011;17256;43.618;25.336;2023-05-07T14:48:51;2.90;;;2.60;;
30462;SDS011;17256;43.618;25.336;2023-05-07T14:52:32;4.17;;;2.03;;
30462;SDS011;17256;43.618;25.336;2023-05-07T14:55:31;3.57;;;2.53;;
30462;SDS011;17256;43.618;25.336;2023-05-07T14:58:01;2.57;;;2.03;;
30462;SDS011;17256;43.618;25.336;2023-05-07T15:00:31;3.23;;;1.90;;
30462;SDS011;17256;43.618;25.336;2023-05-07T15:03:09;2.53;;;2.10;;
30462;SDS011;17256;43.618;25.336;2023-05-07T15:05:37;2.30;;;2.10;;
30462;SDS011;17256;43.618;25.336;2023-05-07T15:08:07;10.67;;;6.17;;
30462;SDS011;17256;43.618;25.336;2023-05-07T15:10:36;7.83;;;2.30;;
30462;SDS011;17256;43.618;25.336;2023-05-07T15:13:07;2.60;;;1.93;;
30462;SDS011;17256;43.618;25.336;2023-05-07T15:15:35;2.33;;;1.97;;
30462;SDS011;17256;43.618;25.336;2023-05-07T15:18:03;23.80;;;12.67;;
30462;SDS011;17256;43.618;25.336;2023-05-07T15:20:31;3.63;;;2.97;;
30462;SDS011;17256;43.618;25.336;2023-05-07T15:23:01;3.53;;;2.17;;
30462;SDS011;17256;43.618;25.336;2023-05-07T15:25:33;3.60;;;2.03;;
30462;SDS011;17256;43.618;25.336;2023-05-07T15:28:00;4.03;;;1.83;;
30462;SDS011;17256;43.618;25.336;2023-05-07T15:30:29;6.07;;;2.17;;
30462;SDS011;17256;43.618;25.336;2023-05-07T15:32:57;1.77;;;1.53;;
30462;SDS011;17256;43.618;25.336;2023-05-07T15:35:23;3.30;;;2.30;;
30462;SDS011;17256;43.618;25.336;2023-05-07T15:38:00;3.13;;;1.80;;
30462;SDS011;17256;43.618;25.336;2023-05-07T15:49:05;3.03;;;2.20;;
30462;SDS011;17256;43.618;25.336;2023-05-07T15:55:08;2.27;;;1.90;;
30462;SDS011;17256;43.618;25.336;2023-05-07T15:57:36;3.20;;;2.17;;
30462;SDS011;17256;43.618;25.336;2023-05-07T16:00:22;5.43;;;2.27;;
30462;SDS011;17256;43.618;25.336;2023-05-07T16:02:57;3.50;;;1.90;;
30462;SDS011;17256;43.618;25.336;2023-05-07T16:05:23;5.10;;;2.27;;
30462;SDS011;17256;43.618;25.336;2023-05-07T16:07:51;2.50;;;2.30;;
30462;SDS011;17256;43.618;25.336;2023-05-07T16:10:18;3.40;;;2.30;;
30462;SDS011;17256;43.618;25.336;2023-05-07T16:12:46;3.93;;;1.90;;
30462;SDS011;17256;43.618;25.336;2023-05-07T16:15:13;8.63;;;2.83;;
30462;SDS011;17256;43.618;25.336;2023-05-07T16:27:22;3.73;;;2.30;;
30462;SDS011;17256;43.618;25.336;2023-05-07T16:30:08;2.83;;;2.30;;
30462;SDS011;17256;43.618;25.336;2023-05-07T16:33:52;4.30;;;1.90;;
30462;SDS011;17256;43.618;25.336;2023-05-07T16:36:22;4.47;;;2.13;;
30462;SDS011;17256;43.618;25.336;2023-05-07T16:39:03;3.53;;;2.10;;
30462;SDS011;17256;43.618;25.336;2023-05-07T16:41:31;3.33;;;2.20;;
30462;SDS011;17256;43.618;25.336;2023-05-07T16:43:58;3.90;;;2.37;;
30462;SDS011;17256;43.618;25.336;2023-05-07T16:46:28;4.27;;;2.47;;
30462;SDS011;17256;43.618;25.336;2023-05-07T16:48:54;2.77;;;2.50;;
30462;SDS011;17256;43.618;25.336;2023-05-07T16:51:21;3.70;;;2.43;;
30462;SDS011;17256;43.618;25.336;2023-05-07T16:53:49;2.63;;;2.20;;
30462;SDS011;17256;43.618;25.336;2023-05-07T17:00:22;3.77;;;2.10;;
30462;SDS011;17256;43.618;25.336;2023-05-07T17:02:53;3.53;;;2.10;;
30462;SDS011;17256;43.618;25.336;2023-05-07T17:08:45;4.20;;;2.50;;
30462;SDS011;17256;43.618;25.336;2023-05-07T17:12:04;3.03;;;2.50;;
30462;SDS011;17256;43.618;25.336;2023-05-07T17:18:33;3.83;;;2.73;;
30462;SDS011;17256;43.618;25.336;2023-05-07T17:21:03;4.00;;;3.03;;
30462;SDS011;17256;43.618;25.336;2023-05-07T17:23:42;2.57;;;2.37;;
30462;SDS011;17256;43.618;25.336;2023-05-07T17:26:25;3.30;;;2.50;;
30462;SDS011;17256;43.618;25.336;2023-05-07T17:29:01;3.40;;;3.10;;
30462;SDS011;17256;43.618;25.336;2023-05-07T17:31:28;5.53;;;2.90;;
30462;SDS011;17256;43.618;25.336;2023-05-07T17:33:58;3.87;;;2.63;;
30462;SDS011;17256;43.618;25.336;2023-05-07T17:36:24;3.67;;;2.70;;
30462;SDS011;17256;43.618;25.336;2023-05-07T17:38:52;4.70;;;2.73;;
30462;SDS011;17256;43.618;25.336;2023-05-07T17:41:18;4.77;;;2.70;;
30462;SDS011;17256;43.618;25.336;2023-05-07T17:43:46;4.17;;;3.70;;
30462;SDS011;17256;43.618;25.336;2023-05-07T17:46:13;4.60;;;3.00;;
30462;SDS011;17256;43.618;25.336;2023-05-07T17:48:41;2.90;;;2.67;;
30462;SDS011;17256;43.618;25.336;2023-05-07T17:51:07;4.60;;;3.13;;
30462;SDS011;17256;43.618;25.336;2023-05-07T17:53:36;3.10;;;2.90;;
30462;SDS011;17256;43.618;25.336;2023-05-07T17:56:02;3.70;;;3.10;;
30462;SDS011;17256;43.618;25.336;2023-05-07T17:58:28;3.20;;;2.90;;
30462;SDS011;17256;43.618;25.336;2023-05-07T18:00:55;4.57;;;3.90;;
30462;SDS011;17256;43.618;25.336;2023-05-07T18:03:20;4.10;;;3.67;;
30462;SDS011;17256;43.618;25.336;2023-05-07T18:05:48;4.63;;;3.33;;
30462;SDS011;17256;43.618;25.336;2023-05-07T18:08:14;7.17;;;3.00;;
30462;SDS011;17256;43.618;25.336;2023-05-07T18:10:39;5.33;;;3.00;;
30462;SDS011;17256;43.618;25.336;2023-05-07T18:13:05;3.20;;;3.00;;
30462;SDS011;17256;43.618;25.336;2023-05-07T18:15:33;3.50;;;2.70;;
30462;SDS011;17256;43.618;25.336;2023-05-07T18:17:59;5.80;;;2.93;;
30462;SDS011;17256;43.618;25.336;2023-05-07T18:20:25;3.37;;;3.03;;
30462;SDS011;17256;43.618;25.336;2023-05-07T18:22:50;4.47;;;3.93;;
30462;SDS011;17256;43.618;25.336;2023-05-07T18:25:16;3.77;;;3.27;;
30462;SDS011;17256;43.618;25.336;2023-05-07T18:27:41;4.87;;;3.33;;
30462;SDS011;17256;43.618;25.336;2023-05-07T18:30:07;6.37;;;3.60;;
30462;SDS011;17256;43.618;25.336;2023-05-07T18:32:34;5.00;;;4.60;;
30462;SDS011;17256;43.618;25.336;2023-05-07T18:34:59;5.03;;;3.90;;
30462;SDS011;17256;43.618;25.336;2023-05-07T18:37:25;4.83;;;4.03;;
30462;SDS011;17256;43.618;25.336;2023-05-07T18:39:51;4.90;;;4.30;;
30462;SDS011;17256;43.618;25.336;2023-05-07T18:42:19;6.83;;;6.03;;
30462;SDS011;17256;43.618;25.336;2023-05-07T18:44:49;7.80;;;4.97;;
30462;SDS011;17256;43.618;25.336;2023-05-07T18:50:45;6.70;;;4.90;;
30462;SDS011;17256;43.618;25.336;2023-05-07T19:05:10;7.90;;;4.40;;
30462;SDS011;17256;43.618;25.336;2023-05-07T19:07:41;4.47;;;4.03;;
30462;SDS011;17256;43.618;25.336;2023-05-07T19:10:13;4.57;;;4.00;;
30462;SDS011;17256;43.618;25.336;2023-05-07T19:12:39;5.47;;;3.10;;
30462;SDS011;17256;43.618;25.336;2023-05-07T19:34:51;6.77;;;3.73;;
30462;SDS011;17256;43.618;25.336;2023-05-07T19:37:24;4.97;;;3.27;;
30462;SDS011;17256;43.618;25.336;2023-05-07T19:39:54;3.20;;;2.90;;
30462;SDS011;17256;43.618;25.336;2023-05-07T19:42:29;6.00;;;3.10;;
30462;SDS011;17256;43.618;25.336;2023-05-07T19:44:55;3.93;;;3.10;;
30462;SDS011;17256;43.618;25.336;2023-05-07T19:47:23;5.73;;;2.57;;
30462;SDS011;17256;43.618;25.336;2023-05-07T19:49:48;4.10;;;2.93;;
30462;SDS011;17256;43.618;25.336;2023-05-07T19:52:14;4.00;;;3.03;;
30462;SDS011;17256;43.618;25.336;2023-05-07T19:54:40;3.83;;;3.37;;
30462;SDS011;17256;43.618;25.336;2023-05-07T19:57:07;4.63;;;2.53;;
30462;SDS011;17256;43.618;25.336;2023-05-07T19:59:33;5.10;;;2.77;;
30462;SDS011;17256;43.618;25.336;2023-05-07T20:01:59;2.90;;;2.60;;
30462;SDS011;17256;43.618;25.336;2023-05-07T20:04:24;3.90;;;2.60;;
30462;SDS011;17256;43.618;25.336;2023-05-07T20:06:55;5.00;;;2.70;;
30462;SDS011;17256;43.618;25.336;2023-05-07T20:09:22;2.87;;;2.67;;
30462;SDS011;17256;43.618;25.336;2023-05-07T20:29:22;4.47;;;2.70;;
30462;SDS011;17256;43.618;25.336;2023-05-07T20:31:57;4.67;;;3.33;;
30462;SDS011;17256;43.618;25.336;2023-05-07T20:34:33;2.97;;;2.77;;
30462;SDS011;17256;43.618;25.336;2023-05-07T20:37:55;2.80;;;2.60;;
30462;SDS011;17256;43.618;25.336;2023-05-07T20:40:29;4.63;;;2.83;;
30462;SDS011;17256;43.618;25.336;2023-05-07T20:43:22;4.67;;;2.77;;
30462;SDS011;17256;43.618;25.336;2023-05-07T20:46:18;3.33;;;2.67;;
30462;SDS011;17256;43.618;25.336;2023-05-07T20:49:02;3.73;;;2.67;;
30462;SDS011;17256;43.618;25.336;2023-05-07T20:51:34;3.10;;;2.80;;
30462;SDS011;17256;43.618;25.336;2023-05-07T20:54:13;7.63;;;3.17;;
30462;SDS011;17256;43.618;25.336;2023-05-07T20:56:44;3.97;;;2.93;;
30462;SDS011;17256;43.618;25.336;2023-05-07T20:59:40;2.93;;;2.60;;
30462;SDS011;17256;43.618;25.336;2023-05-07T21:02:06;2.60;;;2.20;;
30462;SDS011;17256;43.618;25.336;2023-05-07T21:04:34;3.30;;;2.60;;
30462;SDS011;17256;43.618;25.336;2023-05-07T21:07:03;3.20;;;2.83;;
30462;SDS011;17256;43.618;25.336;2023-05-07T21:09:29;3.53;;;3.00;;
30462;SDS011;17256;43.618;25.336;2023-05-07T21:11:55;2.87;;;2.67;;
30462;SDS011;17256;43.618;25.336;2023-05-07T21:14:22;2.70;;;2.50;;
30462;SDS011;17256;43.618;25.336;2023-05-07T21:16:48;3.33;;;3.03;;
30462;SDS011;17256;43.618;25.336;2023-05-07T21:19:14;3.40;;;2.60;;
30462;SDS011;17256;43.618;25.336;2023-05-07T21:21:40;3.60;;;2.60;;
30462;SDS011;17256;43.618;25.336;2023-05-07T21:33:27;2.90;;;2.60;;
30462;SDS011;17256;43.618;25.336;2023-05-07T21:40:17;4.80;;;2.87;;
30462;SDS011;17256;43.618;25.336;2023-05-07T21:43:56;5.97;;;2.60;;
30462;SDS011;17256;43.618;25.336;2023-05-07T21:50:25;3.60;;;2.47;;
30462;SDS011;17256;43.618;25.336;2023-05-07T21:53:20;3.37;;;2.47;;
30462;SDS011;17256;43.618;25.336;2023-05-07T21:56:36;3.43;;;2.50;;
30462;SDS011;17256;43.618;25.336;2023-05-07T21:59:35;2.93;;;2.73;;
30462;SDS011;17256;43.618;25.336;2023-05-07T22:02:30;3.47;;;2.77;;
30462;SDS011;17256;43.618;25.336;2023-05-07T22:05:43;2.50;;;2.27;;
30462;SDS011;17256;43.618;25.336;2023-05-07T22:08:13;3.87;;;2.73;;
30462;SDS011;17256;43.618;25.336;2023-05-07T22:11:00;2.80;;;2.60;;
30462;SDS011;17256;43.618;25.336;2023-05-07T22:13:55;3.93;;;3.17;;
30462;SDS011;17256;43.618;25.336;2023-05-07T22:16:26;3.00;;;2.70;;
30462;SDS011;17256;43.618;25.336;2023-05-07T22:19:02;3.10;;;2.80;;
30462;SDS011;17256;43.618;25.336;2023-05-07T22:21:43;4.57;;;3.07;;
30462;SDS011;17256;43.618;25.336;2023-05-07T22:24:17;7.03;;;4.03;;
30462;SDS011;17256;43.618;25.336;2023-05-07T22:27:00;4.10;;;3.60;;
30462;SDS011;17256;43.618;25.336;2023-05-07T22:29:39;3.83;;;3.30;;
30462;SDS011;17256;43.618;25.336;2023-05-07T22:32:11;4.83;;;3.30;;
30462;SDS011;17256;43.618;25.336;2023-05-07T22:34:40;3.97;;;3.63;;
30462;SDS011;17256;43.618;25.336;2023-05-07T22:37:06;5.63;;;3.73;;
30462;SDS011;17256;43.618;25.336;2023-05-07T22:47:45;6.33;;;4.20;;
30462;SDS011;17256;43.618;25.336;2023-05-07T22:50:12;4.60;;;3.33;;
30462;SDS011;17256;43.618;25.336;2023-05-07T23:04:25;6.67;;;5.10;;
30462;SDS011;17256;43.618;25.336;2023-05-07T23:06:51;4.17;;;3.87;;
30462;SDS011;17256;43.618;25.336;2023-05-07T23:09:18;4.17;;;2.83;;
30462;SDS011;17256;43.618;25.336;2023-05-07T23:11:44;4.20;;;3.50;;
30462;SDS011;17256;43.618;25.336;2023-05-07T23:14:12;2.60;;;2.40;;
30462;SDS011;17256;43.618;25.336;2023-05-07T23:16:38;3.07;;;2.80;;
30462;SDS011;17256;43.618;25.336;2023-05-07T23:19:04;3.90;;;3.60;;
30462;SDS011;17256;43.618;25.336;2023-05-07T23:21:32;4.37;;;3.37;;
30462;SDS011;17256;43.618;25.336;2023-05-07T23:24:01;6.20;;;4.70;;
30462;SDS011;17256;43.618;25.336;2023-05-07T23:26:28;5.20;;;3.83;;
30462;SDS011;17256;43.618;25.336;2023-05-07T23:40:07;5.60;;;5.10;;
30462;SDS011;17256;43.618;25.336;2023-05-07T23:43:03;5.37;;;4.33;;
30462;SDS011;17256;43.618;25.336;2023-05-07T23:45:29;6.40;;;4.43;;
30462;SDS011;17256;43.618;25.336;2023-05-07T23:47:55;5.00;;;4.50;;
30462;SDS011;17256;43.618;25.336;2023-05-07T23:50:21;5.93;;;5.10;;
30462;SDS011;17256;43.618;25.336;2023-05-07T23:52:47;5.73;;;4.30;;
30462;SDS011;17256;43.618;25.336;2023-05-07T23:55:12;7.80;;;4.70;;
30462;SDS011;17256;43.618;25.336;2023-05-07T23:57:41;4.87;;;4.00;;
